sensor_id;sensor_type;location;lat;lon;timestamp;P1;durP1;ratioP1;P2;durP2;ratioP2
18689;SDS011;9782;52.930;15.562;2023-05-07T18:38:47;4.73;;;3.00;;
18689;SDS011;9782;52.930;15.562;2023-05-07T18:41:14;4.77;;;3.10;;
18689;SDS011;9782;52.930;15.562;2023-05-07T18:43:41;5.97;;;3.37;;
18689;SDS011;9782;52.930;15.562;2023-05-07T18:46:07;3.47;;;3.17;;
18689;SDS011;9782;52.930;15.562;2023-05-07T18:48:34;4.60;;;3.10;;
18689;SDS011;9782;52.930;15.562;2023-05-07T18:51:01;5.60;;;3.20;;
18689;SDS011;9782;52.930;15.562;2023-05-07T18:53:28;6.87;;;3.20;;
18689;SDS011;9782;52.930;15.562;2023-05-07T18:55:56;3.50;;;3.20;;
18689;SDS011;9782;52.930;15.562;2023-05-07T18:58:24;4.30;;;3.47;;
18689;SDS011;9782;52.930;15.562;2023-05-07T19:00:51;3.50;;;3.17;;
18689;SDS011;9782;52.930;15.562;2023-05-07T19:03:17;5.17;;;3.30;;
18689;SDS011;9782;52.930;15.562;2023-05-07T19:05:44;3.50;;;3.20;;
18689;SDS011;9782;52.930;15.562;2023-05-07T19:08:11;3.87;;;3.47;;
18689;SDS011;9782;52.930;15.562;2023-05-07T19:10:38;4.13;;;3.50;;
18689;SDS011;9782;52.930;15.562;2023-05-07T19:13:06;5.93;;;3.40;;
18689;SDS011;9782;52.930;15.562;2023-05-07T19:15:33;3.50;;;3.20;;
18689;SDS011;9782;52.930;15.562;2023-05-07T19:17:59;4.67;;;3.80;;
18689;SDS011;9782;52.930;15.562;2023-05-07T19:20:26;6.33;;;3.60;;
18689;SDS011;9782;52.930;15.562;2023-05-07T19:22:54;4.17;;;3.67;;
18689;SDS011;9782;52.930;15.562;2023-05-07T19:25:21;6.70;;;3.87;;
18689;SDS011;9782;52.930;15.562;2023-05-07T19:27:47;5.73;;;3.80;;
18689;SDS011;9782;52.930;15.562;2023-05-07T19:30:16;4.53;;;3.90;;
18689;SDS011;9782;52.930;15.562;2023-05-07T19:32:43;5.30;;;3.67;;
18689;SDS011;9782;52.930;15.562;2023-05-07T19:35:09;4.63;;;3.70;;
18689;SDS011;9782;52.930;15.562;2023-05-07T19:37:36;4.43;;;3.90;;
18689;SDS011;9782;52.930;15.562;2023-05-07T19:40:04;4.70;;;4.13;;
18689;SDS011;9782;52.930;15.562;2023-05-07T19:42:32;4.87;;;3.93;;
18689;SDS011;9782;52.930;15.562;2023-05-07T19:44:59;4.73;;;4.07;;
18689;SDS011;9782;52.930;15.562;2023-05-07T19:47:29;5.03;;;4.13;;
18689;SDS011;9782;52.930;15.562;2023-05-07T19:49:56;5.13;;;3.80;;
18689;SDS011;9782;52.930;15.562;2023-05-07T19:52:23;4.43;;;3.77;;
18689;SDS011;9782;52.930;15.562;2023-05-07T19:54:49;7.77;;;4.10;;
18689;SDS011;9782;52.930;15.562;2023-05-07T19:57:16;4.13;;;3.73;;
18689;SDS011;9782;52.930;15.562;2023-05-07T19:59:43;4.63;;;3.90;;
18689;SDS011;9782;52.930;15.562;2023-05-07T20:02:11;5.27;;;4.17;;
18689;SDS011;9782;52.930;15.562;2023-05-07T20:04:40;5.50;;;3.83;;
18689;SDS011;9782;52.930;15.562;2023-05-07T20:07:07;7.80;;;4.70;;
18689;SDS011;9782;52.930;15.562;2023-05-07T20:09:34;6.47;;;4.30;;
18689;SDS011;9782;52.930;15.562;2023-05-07T20:12:01;5.33;;;4.47;;
18689;SDS011;9782;52.930;15.562;2023-05-07T20:14:28;4.60;;;4.20;;
18689;SDS011;9782;52.930;15.562;2023-05-07T20:16:54;6.80;;;4.20;;
18689;SDS011;9782;52.930;15.562;2023-05-07T20:19:21;7.10;;;4.40;;
18689;SDS011;9782;52.930;15.562;2023-05-07T20:21:49;5.40;;;4.17;;
18689;SDS011;9782;52.930;15.562;2023-05-07T20:24:16;6.10;;;4.43;;
18689;SDS011;9782;52.930;15.562;2023-05-07T20:26:43;5.17;;;4.37;;
18689;SDS011;9782;52.930;15.562;2023-05-07T20:29:11;5.17;;;4.00;;
18689;SDS011;9782;52.930;15.562;2023-05-07T20:31:38;4.57;;;4.13;;
18689;SDS011;9782;52.930;15.562;2023-05-07T20:34:05;4.90;;;4.10;;
18689;SDS011;9782;52.930;15.562;2023-05-07T20:36:32;6.73;;;4.53;;
18689;SDS011;9782;52.930;15.562;2023-05-07T20:39:01;11.93;;;7.70;;
18689;SDS011;9782;52.930;15.562;2023-05-07T20:41:28;13.67;;;10.37;;
18689;SDS011;9782;52.930;15.562;2023-05-07T20:43:55;16.17;;;10.57;;
